KOKC/OKC METAR and TAF weather

Enter ICAO airport designator
Station Type Date Time Source
KOKC METAR 2021/01/16 01:52 UTC NOAA

KOKC 160152Z 32011KT 10SM FEW065 03/M08 A3000 RMK AO2 SLP167 T00281078


Station Type Date Time Source
KOKC Decoded METAR 2021/01/16 01:52 UTC NOAA

WILL ROGERS WORLD AIRPORT, OK, United States (KOKC) 35-23N 97-36W 390M
Jan 15, 2021 - 08:52 PM EST / 2021.01.16 0152 UTC
Wind: from the NW (320 degrees) at 13 MPH (11 KT):0
Visibility: 10 mile(s):0
Sky conditions: mostly clear
Temperature: 37.0 F (2.8 C)
Dew Point: 18.0 F (-7.8 C)
Relative Humidity: 45%
Pressure (altimeter): 30 in. Hg (1015 hPa)
ob: KOKC 160152Z 32011KT 10SM FEW065 03/M08 A3000 RMK AO2 SLP167 T00281078
cycle: 2

Station Type Date Time Source
KOKC TAF 2021/01/15 18:24 UTC NOAA

TAF KOKC 151721Z 1518/1618 32026G40KT P6SM SCT070
TEMPO 1518/1521 BKN070
FM152300 33019G28KT P6SM BKN070
FM160100 33014KT P6SM SCT060 WS020/33045KT
FM160800 32010KT P6SM SKC

Example: see airport list